Time;durP1;ratioP1;P1;durP2;ratioP2;P2;SDS_P1;SDS_P2;PMS_P1;PMS_P2;Temp;Humidity;BMP_temperature;BMP_pressure;BME280_temperature;BME280_humidity;BME280_pressure;Samples;Min_cycle;Max_cycle;Signal;HPM_P1;HPM_P2
2022/04/04 00:01:02;;;;;;;;;;;;;;;4.75;77.14;101743.25;5033404;28;19927;-34
2022/04/04 00:03:27;;;;;;;;;;;;;;;4.77;77.54;101744.84;4958664;28;19918;-35
2022/04/04 00:05:52;;;;;;;;;;;;;;;4.77;77.51;101744.84;4964084;28;19969;-33
2022/04/04 00:08:18;;;;;;;;;;;;;;;4.75;77.93;101736.09;4948253;29;19968;-32
2022/04/04 00:10:43;;;;;;;;;;;;;;;4.75;77.99;101730.75;4962930;28;20010;-35
2022/04/04 00:13:08;;;;;;;;;;;;;;;4.73;78.17;101727.38;4966402;28;20044;-32
2022/04/04 00:15:33;;;;;;;;;;;;;;;4.72;78.49;101724.84;4968634;28;20378;-32
2022/04/04 00:18:10;;;;;;;;;;;;;;;4.74;78.75;101710.41;4968241;28;20340;-32
2022/04/04 00:20:35;;;;;;;;;;;;;;;4.73;78.47;101711.38;4968802;28;19976;-33
2022/04/04 00:23:00;;;;;;;;;;;;;;;4.73;78.28;101705.19;4968324;28;19945;-32
2022/04/04 00:25:27;;;;;;;;;;;;;;;4.76;78.35;101704.94;4967305;28;19914;-36
2022/04/04 00:27:52;;;;;;;;;;;;;;;4.79;78.33;101692.22;4950577;28;20311;-33
2022/04/04 00:30:17;;;;;;;;;;;;;;;4.83;78.41;101691.00;4968743;28;20001;-34
2022/04/04 00:32:43;;;;;;;;;;;;;;;4.93;78.00;101688.44;4968302;28;20291;-33
2022/04/04 00:35:08;;;;;;;;;;;;;;;5.06;76.76;101694.47;4969926;28;20369;-36
2022/04/04 00:37:34;;;;;;;;;;;;;;;5.24;75.80;101686.78;4970143;28;19918;-33
2022/04/04 00:39:59;;;;;;;;;;;;;;;5.35;75.50;101682.38;4970667;28;20333;-33
2022/04/04 00:42:24;;;;;;;;;;;;;;;5.44;74.85;101677.09;4971487;28;20239;-34
2022/04/04 00:44:51;;;;;;;;;;;;;;;5.49;74.64;101676.72;4970626;28;19914;-36
2022/04/04 00:47:16;;;;;;;;;;;;;;;5.54;74.10;101666.50;4971922;28;20219;-35
2022/04/04 00:49:41;;;;;;;;;;;;;;;5.63;73.19;101662.22;4971624;28;19922;-36
2022/04/04 00:52:07;;;;;;;;;;;;;;;5.66;73.02;101661.94;4971694;28;19914;-36
2022/04/04 00:54:32;;;;;;;;;;;;;;;5.67;72.73;101660.97;4971636;28;20268;-33
2022/04/04 00:56:57;;;;;;;;;;;;;;;5.70;72.46;101658.88;4971290;28;19972;-33
2022/04/04 00:59:23;;;;;;;;;;;;;;;5.73;72.39;101642.59;4970689;28;20375;-34
2022/04/04 01:01:49;;;;;;;;;;;;;;;5.77;72.16;101651.22;4972628;28;19925;-33
2022/04/04 01:04:16;;;;;;;;;;;;;;;5.81;71.98;101639.28;4971160;28;19914;-38
2022/04/04 01:06:43;;;;;;;;;;;;;;;5.83;71.55;101626.63;4971550;28;20016;-33
2022/04/04 01:09:09;;;;;;;;;;;;;;;5.81;72.50;101625.06;4970278;28;20937;-34
2022/04/04 01:11:35;;;;;;;;;;;;;;;5.73;73.45;101623.91;4971071;28;19967;-34
2022/04/04 01:14:00;;;;;;;;;;;;;;;5.50;74.84;101625.00;4969880;28;20005;-34
2022/04/04 01:16:25;;;;;;;;;;;;;;;5.45;75.65;101619.22;4964363;28;20017;-32
2022/04/04 01:18:50;;;;;;;;;;;;;;;5.40;76.23;101611.63;4964899;28;19918;-36
2022/04/04 01:21:19;;;;;;;;;;;;;;;5.35;76.90;101611.16;4959496;28;20402;-32
2022/04/04 01:23:45;;;;;;;;;;;;;;;5.32;77.33;101606.06;4970833;28;20274;-32
2022/04/04 01:26:11;;;;;;;;;;;;;;;5.30;77.87;101594.69;4968453;28;19925;-33
2022/04/04 01:28:37;;;;;;;;;;;;;;;5.31;78.75;101596.34;4967247;28;20028;-35
2022/04/04 01:31:02;;;;;;;;;;;;;;;5.32;78.82;101599.88;4951866;28;19949;-32
2022/04/04 01:33:27;;;;;;;;;;;;;;;5.29;79.13;101595.63;4970503;28;20296;-32
2022/04/04 01:35:53;;;;;;;;;;;;;;;5.33;79.40;101590.91;4961724;28;20127;-33
2022/04/04 01:38:18;;;;;;;;;;;;;;;5.32;79.54;101579.38;4969837;28;19993;-34
2022/04/04 01:40:43;;;;;;;;;;;;;;;5.31;79.96;101575.00;4971155;28;20368;-33
2022/04/04 01:43:09;;;;;;;;;;;;;;;5.28;80.44;101569.94;4970765;28;19918;-32
2022/04/04 01:48:18;;;;;;;;;;;;;;;5.24;81.04;101550.69;4970635;28;20430;-32
2022/04/04 01:50:43;;;;;;;;;;;;;;;5.24;81.33;101556.00;4970874;28;19918;-33
2022/04/04 01:53:25;;;;;;;;;;;;;;;5.25;81.01;101554.19;4970758;28;19960;-34
2022/04/04 01:55:50;;;;;;;;;;;;;;;5.27;81.56;101538.88;4969529;28;19922;-32
2022/04/04 01:58:15;;;;;;;;;;;;;;;5.28;81.14;101535.22;4970352;28;19918;-32
2022/04/04 02:00:41;;;;;;;;;;;;;;;5.27;81.32;101530.88;4969456;28;19914;-33
2022/04/04 02:03:06;;;;;;;;;;;;;;;5.28;81.55;101530.72;4970540;28;19918;-32
2022/04/04 02:05:31;;;;;;;;;;;;;;;5.31;81.62;101515.44;4970630;28;20013;-32
2022/04/04 02:07:57;;;;;;;;;;;;;;;5.31;81.67;101513.63;4969248;28;19957;-36
2022/04/04 02:10:22;;;;;;;;;;;;;;;5.31;81.59;101508.28;4969832;28;19964;-36
2022/04/04 02:12:47;;;;;;;;;;;;;;;5.31;81.62;101502.09;4970304;28;19914;-36
2022/04/04 02:15:13;;;;;;;;;;;;;;;5.33;81.19;101500.16;4968855;28;19921;-33
2022/04/04 02:17:39;;;;;;;;;;;;;;;5.36;80.78;101491.88;4968856;28;19918;-35
2022/04/04 02:20:06;;;;;;;;;;;;;;;5.38;80.14;101488.09;4970255;28;20013;-36
2022/04/04 02:22:32;;;;;;;;;;;;;;;5.40;79.01;101485.31;4970150;28;20291;-33
2022/04/04 02:24:57;;;;;;;;;;;;;;;5.44;78.82;101466.19;4970178;28;20001;-36
2022/04/04 02:27:22;;;;;;;;;;;;;;;5.46;78.85;101469.59;4970198;28;20272;-33
2022/04/04 02:29:47;;;;;;;;;;;;;;;5.49;78.90;101469.31;4968800;28;20407;-37
2022/04/04 02:32:12;;;;;;;;;;;;;;;5.50;78.77;101475.50;4968783;28;20292;-34
2022/04/04 02:34:38;;;;;;;;;;;;;;;5.54;78.32;101460.91;4968573;28;20384;-34
2022/04/04 02:37:03;;;;;;;;;;;;;;;5.60;77.33;101454.19;4968924;28;19929;-34
2022/04/04 02:39:28;;;;;;;;;;;;;;;5.63;77.35;101448.56;4969467;28;20281;-33
2022/04/04 02:41:55;;;;;;;;;;;;;;;5.65;77.03;101441.28;5052387;28;20316;-34
2022/04/04 02:44:20;;;;;;;;;;;;;;;5.66;77.58;101432.28;4960326;28;19944;-33
2022/04/04 02:46:45;;;;;;;;;;;;;;;5.66;77.82;101427.81;4956353;28;19937;-36
2022/04/04 02:49:11;;;;;;;;;;;;;;;5.69;77.60;101416.00;4957628;28;19910;-32
2022/04/04 02:51:36;;;;;;;;;;;;;;;5.73;75.43;101417.41;4968470;28;19914;-33
2022/04/04 02:54:01;;;;;;;;;;;;;;;5.86;71.75;101407.31;4968304;28;19914;-33
2022/04/04 02:56:30;;;;;;;;;;;;;;;5.97;70.76;101400.19;5051993;28;19914;-32
2022/04/04 02:58:56;;;;;;;;;;;;;;;6.09;68.54;101391.09;4969761;28;19929;-32
2022/04/04 03:01:22;;;;;;;;;;;;;;;6.19;66.69;101389.28;4969657;28;19910;-33
2022/04/04 03:03:47;;;;;;;;;;;;;;;6.28;65.73;101379.56;4968118;28;20373;-35
2022/04/04 03:06:12;;;;;;;;;;;;;;;6.33;65.71;101367.44;4968594;28;19924;-32
2022/04/04 03:08:38;;;;;;;;;;;;;;;6.36;65.11;101356.47;4969342;28;20020;-33
2022/04/04 03:11:03;;;;;;;;;;;;;;;6.39;64.84;101347.31;4969283;28;19953;-33
2022/04/04 03:13:29;;;;;;;;;;;;;;;6.38;64.75;101354.50;4968105;28;19921;-33
2022/04/04 03:15:54;;;;;;;;;;;;;;;6.41;64.61;101355.22;4968871;28;19918;-32
2022/04/04 03:18:19;;;;;;;;;;;;;;;6.42;64.35;101357.72;4967983;28;19922;-32
2022/04/04 03:20:45;;;;;;;;;;;;;;;6.46;64.29;101355.63;4969162;28;19914;-33
2022/04/04 03:23:10;;;;;;;;;;;;;;;6.50;63.75;101346.31;4968163;28;19914;-32
2022/04/04 03:25:35;;;;;;;;;;;;;;;6.50;63.82;101330.28;4967693;28;19925;-32
2022/04/04 03:28:00;;;;;;;;;;;;;;;6.48;63.83;101326.94;4951418;28;19944;-32
2022/04/04 03:30:26;;;;;;;;;;;;;;;6.52;63.46;101318.44;4967568;28;20288;-33
2022/04/04 03:32:54;;;;;;;;;;;;;;;6.52;63.38;101322.97;4969143;28;20233;-32
2022/04/04 03:35:20;;;;;;;;;;;;;;;6.54;63.03;101316.47;4967722;28;20230;-34
2022/04/04 03:37:46;;;;;;;;;;;;;;;6.54;63.10;101304.94;4967433;28;19918;-33
2022/04/04 03:40:13;;;;;;;;;;;;;;;6.55;62.85;101295.94;4967674;28;19926;-35
2022/04/04 03:42:38;;;;;;;;;;;;;;;6.55;63.10;101285.22;4969138;28;20439;-33
2022/04/04 03:45:04;;;;;;;;;;;;;;;6.56;62.40;101282.41;4968868;28;20009;-34
2022/04/04 03:47:30;;;;;;;;;;;;;;;6.57;62.12;101288.59;4967428;28;19918;-33
2022/04/04 03:49:55;;;;;;;;;;;;;;;6.59;61.86;101276.78;4967766;28;20123;-33
2022/04/04 03:52:20;;;;;;;;;;;;;;;6.58;61.62;101267.09;4964827;28;19978;-35
2022/04/04 03:54:46;;;;;;;;;;;;;;;6.60;61.76;101282.97;4964612;28;20335;-34
2022/04/04 03:57:11;;;;;;;;;;;;;;;6.60;61.65;101259.72;4960248;28;20138;-35
2022/04/04 03:59:36;;;;;;;;;;;;;;;6.60;61.87;101256.22;4958562;28;20052;-35
2022/04/04 04:02:04;;;;;;;;;;;;;;;6.63;61.84;101247.06;4963301;28;19957;-35
2022/04/04 04:04:29;;;;;;;;;;;;;;;6.61;62.14;101252.56;4940857;28;19914;-31
2022/04/04 04:06:55;;;;;;;;;;;;;;;6.62;62.19;101230.19;4968363;28;19933;-31
2022/04/04 04:09:21;;;;;;;;;;;;;;;6.63;62.37;101226.50;4968475;28;20039;-35
2022/04/04 04:11:46;;;;;;;;;;;;;;;6.63;62.37;101223.00;4967065;28;19925;-35
2022/04/04 04:14:11;;;;;;;;;;;;;;;6.62;62.52;101227.50;4968737;28;19914;-36
2022/04/04 04:16:36;;;;;;;;;;;;;;;6.62;62.72;101224.84;4966833;28;19968;-34
2022/04/04 04:19:02;;;;;;;;;;;;;;;6.62;62.97;101214.13;4968690;28;19936;-34
2022/04/04 04:21:27;;;;;;;;;;;;;;;6.64;63.02;101219.34;4968459;28;20016;-34
2022/04/04 04:23:52;;;;;;;;;;;;;;;6.65;63.24;101208.47;5035175;28;19940;-32
2022/04/04 04:26:17;;;;;;;;;;;;;;;6.65;63.56;101211.16;4968490;28;20349;-32
2022/04/04 04:28:46;;;;;;;;;;;;;;;6.65;63.80;101188.94;4968377;28;20017;-32
2022/04/04 04:31:12;;;;;;;;;;;;;;;6.67;64.11;101193.13;4968524;28;20276;-32
2022/04/04 04:33:37;;;;;;;;;;;;;;;6.68;64.36;101185.94;4966521;28;19967;-34
2022/04/04 04:36:02;;;;;;;;;;;;;;;6.66;64.71;101175.41;4966717;28;19918;-32
2022/04/04 04:38:29;;;;;;;;;;;;;;;6.66;65.16;101167.41;4983458;28;20399;-31
2022/04/04 04:40:54;;;;;;;;;;;;;;;6.67;65.54;101168.22;4968643;28;20304;-31
2022/04/04 04:43:19;;;;;;;;;;;;;;;6.69;65.58;101163.53;4981676;28;19919;-35
2022/04/04 04:45:45;;;;;;;;;;;;;;;6.67;65.80;101155.69;4964506;28;19922;-33
2022/04/04 04:48:10;;;;;;;;;;;;;;;6.67;66.49;101150.34;4959997;28;19929;-33
2022/04/04 04:50:36;;;;;;;;;;;;;;;6.68;66.48;101138.63;4949328;28;20619;-32
2022/04/04 04:53:02;;;;;;;;;;;;;;;6.68;66.79;101138.63;4962716;28;19914;-33
2022/04/04 04:55:27;;;;;;;;;;;;;;;6.60;68.52;101130.53;4957423;28;20034;-32
2022/04/04 04:57:53;;;;;;;;;;;;;;;6.53;69.95;101130.28;4949133;29;19921;-32
2022/04/04 05:00:23;;;;;;;;;;;;;;;6.45;70.79;101130.19;4957089;28;20349;-35
2022/04/04 05:03:24;;;;;;;;;;;;;;;6.47;71.37;101116.66;4967993;28;19918;-34
2022/04/04 05:05:34;;;;;;;;;;;;;;;6.45;71.97;101116.84;4956294;28;19914;-33
2022/04/04 05:07:59;;;;;;;;;;;;;;;6.42;72.37;101102.91;5051070;28;19918;-32
2022/04/04 05:10:24;;;;;;;;;;;;;;;6.42;72.35;101102.91;4967831;28;19922;-32
2022/04/04 05:12:50;;;;;;;;;;;;;;;6.44;72.50;101106.28;4967679;28;19918;-32
2022/04/04 05:15:15;;;;;;;;;;;;;;;6.41;72.96;101093.22;4967021;28;19997;-32
2022/04/04 05:17:41;;;;;;;;;;;;;;;6.41;73.26;101091.38;4967065;28;19925;-33
2022/04/04 05:20:06;;;;;;;;;;;;;;;6.40;73.29;101083.47;4967434;28;19971;-32
2022/04/04 05:22:31;;;;;;;;;;;;;;;6.40;73.63;101078.13;4970895;28;19918;-34
2022/04/04 05:24:56;;;;;;;;;;;;;;;6.39;73.78;101055.91;4969976;28;19949;-35
2022/04/04 05:27:22;;;;;;;;;;;;;;;6.36;74.02;101070.41;4970519;28;20333;-33
2022/04/04 05:29:47;;;;;;;;;;;;;;;6.36;74.24;101073.09;4969636;28;19918;-35
2022/04/04 05:32:12;;;;;;;;;;;;;;;6.35;74.73;101065.25;4969050;28;19918;-36
2022/04/04 05:34:37;;;;;;;;;;;;;;;6.35;75.61;101079.44;4971036;28;20021;-34
2022/04/04 05:37:04;;;;;;;;;;;;;;;6.35;76.66;101065.25;4973902;28;19921;-33
2022/04/04 05:39:29;;;;;;;;;;;;;;;6.31;77.82;101053.16;5037345;28;19944;-33
2022/04/04 05:41:54;;;;;;;;;;;;;;;6.26;78.85;101050.06;4969565;28;20342;-33
2022/04/04 05:44:19;;;;;;;;;;;;;;;6.22;79.79;101054.06;4970421;28;20496;-31
2022/04/04 05:46:45;;;;;;;;;;;;;;;6.08;80.83;101058.03;4970310;28;19979;-33
2022/04/04 05:49:11;;;;;;;;;;;;;;;6.06;82.60;101049.34;4970549;28;20013;-36
2022/04/04 05:51:37;;;;;;;;;;;;;;;5.93;81.82;101018.47;4983650;28;19957;-32
2022/04/04 05:54:04;;;;;;;;;;;;;;;5.86;81.77;101043.19;5037082;28;20091;-35
2022/04/04 05:56:29;;;;;;;;;;;;;;;5.80;80.92;101047.31;4950452;28;19926;-34
2022/04/04 05:58:55;;;;;;;;;;;;;;;5.75;78.79;101040.72;4969894;28;19925;-31
2022/04/04 06:01:20;;;;;;;;;;;;;;;5.76;78.01;101027.19;4970090;28;20031;-32
2022/04/04 06:03:45;;;;;;;;;;;;;;;5.73;76.11;101032.84;4969627;28;20157;-36
2022/04/04 06:06:10;;;;;;;;;;;;;;;5.75;75.85;101019.34;4968968;28;19925;-37
2022/04/04 06:08:36;;;;;;;;;;;;;;;5.78;75.56;101035.06;4968053;28;19918;-37
2022/04/04 06:11:02;;;;;;;;;;;;;;;5.80;74.16;101015.25;4981044;28;19927;-35
2022/04/04 06:13:27;;;;;;;;;;;;;;;5.86;73.35;101022.66;4942362;28;19914;-36
2022/04/04 06:15:52;;;;;;;;;;;;;;;5.90;74.87;101024.06;4968017;28;19928;-37
2022/04/04 06:18:18;;;;;;;;;;;;;;;5.90;74.70;101013.38;4968561;28;20009;-34
2022/04/04 06:20:43;;;;;;;;;;;;;;;5.85;75.49;101015.66;4968483;28;19914;-33
2022/04/04 06:23:09;;;;;;;;;;;;;;;5.85;75.00;101007.63;4969582;28;20002;-38
2022/04/04 06:25:34;;;;;;;;;;;;;;;5.84;74.47;100995.25;4967499;28;19937;-36
2022/04/04 06:27:59;;;;;;;;;;;;;;;5.88;75.98;100999.31;4969010;28;19918;-34
2022/04/04 06:30:25;;;;;;;;;;;;;;;5.86;76.17;100995.94;4966972;28;20013;-34
2022/04/04 06:32:50;;;;;;;;;;;;;;;5.87;76.26;100989.63;4963522;28;20304;-34
2022/04/04 06:35:16;;;;;;;;;;;;;;;5.89;77.05;100989.47;4951759;28;20939;-40
2022/04/04 06:37:42;;;;;;;;;;;;;;;5.86;75.34;100985.28;4927302;28;20276;-37
2022/04/04 06:40:07;;;;;;;;;;;;;;;5.88;75.57;100971.78;4955605;28;19929;-36
2022/04/04 06:42:39;;;;;;;;;;;;;;;5.89;75.75;100979.63;4951251;28;19919;-35
2022/04/04 06:45:06;;;;;;;;;;;;;;;5.88;74.87;100988.63;4953669;28;19914;-33
2022/04/04 06:47:31;;;;;;;;;;;;;;;5.87;74.89;100970.06;5038096;28;19918;-35
2022/04/04 06:49:57;;;;;;;;;;;;;;;5.87;75.63;100954.06;4954923;28;19941;-37
2022/04/04 06:52:22;;;;;;;;;;;;;;;5.87;75.91;100965.59;5034024;28;20320;-37
2022/04/04 06:54:48;;;;;;;;;;;;;;;5.90;77.03;100970.66;4957890;28;20572;-37
2022/04/04 06:57:15;;;;;;;;;;;;;;;5.85;78.47;100974.75;4955258;28;19945;-32
2022/04/04 06:59:40;;;;;;;;;;;;;;;5.74;80.26;100959.75;4950531;28;20037;-31
2022/04/04 07:02:05;;;;;;;;;;;;;;;5.70;81.39;100961.03;5042440;28;19969;-33
2022/04/04 07:04:30;;;;;;;;;;;;;;;5.59;81.94;100953.22;4955786;28;20025;-32
2022/04/04 07:06:56;;;;;;;;;;;;;;;5.51;83.20;100943.28;4946940;28;19915;-37
2022/04/04 07:09:23;;;;;;;;;;;;;;;5.39;84.27;100955.94;4955221;28;19918;-31
2022/04/04 07:11:51;;;;;;;;;;;;;;;5.27;85.52;100938.44;4956153;28;19926;-36
2022/04/04 07:14:16;;;;;;;;;;;;;;;5.11;85.95;100944.38;5037727;28;19922;-43
2022/04/04 07:16:41;;;;;;;;;;;;;;;4.97;86.80;100929.66;4955072;28;20367;-41
2022/04/04 07:19:09;;;;;;;;;;;;;;;4.87;87.53;100947.50;4950743;28;20297;-45
2022/04/04 07:21:34;;;;;;;;;;;;;;;4.82;88.77;100931.09;4958920;28;19918;-43
2022/04/04 07:24:00;;;;;;;;;;;;;;;4.79;89.67;100902.03;4959334;28;20391;-34
2022/04/04 07:26:26;;;;;;;;;;;;;;;4.83;90.22;100914.09;4948626;28;20329;-44
2022/04/04 07:28:53;;;;;;;;;;;;;;;4.86;90.18;100905.81;4948617;28;19924;-44
2022/04/04 07:31:18;;;;;;;;;;;;;;;4.86;90.57;100889.81;4952749;28;19910;-46
2022/04/04 07:33:43;;;;;;;;;;;;;;;4.86;90.95;100892.47;4956983;28;19926;-45
2022/04/04 07:36:10;;;;;;;;;;;;;;;4.83;91.37;100900.78;4951353;28;19929;-46
2022/04/04 07:38:35;;;;;;;;;;;;;;;4.84;92.12;100889.09;4961705;28;19940;-45
2022/04/04 07:41:01;;;;;;;;;;;;;;;4.86;92.61;100876.47;4953404;28;19918;-46
2022/04/04 07:43:26;;;;;;;;;;;;;;;4.90;92.85;100883.22;4951547;28;19921;-46
2022/04/04 07:45:52;;;;;;;;;;;;;;;4.91;93.27;100887.56;4949821;28;19921;-46
2022/04/04 07:48:17;;;;;;;;;;;;;;;4.89;92.49;100862.84;4950574;28;20051;-45
2022/04/04 07:50:44;;;;;;;;;;;;;;;4.91;91.80;100882.22;4966795;28;19914;-44
2022/04/04 07:53:09;;;;;;;;;;;;;;;4.92;91.04;100861.72;4968702;28;20366;-45
2022/04/04 07:55:36;;;;;;;;;;;;;;;4.94;90.88;100870.44;4962590;28;19922;-45
2022/04/04 07:58:02;;;;;;;;;;;;;;;4.97;91.59;100843.47;4964058;28;20334;-44
2022/04/04 08:00:27;;;;;;;;;;;;;;;5.00;91.76;100872.50;4965991;28;19989;-43
2022/04/04 08:02:54;;;;;;;;;;;;;;;4.95;91.80;100854.28;4957326;28;19979;-44
2022/04/04 08:05:19;;;;;;;;;;;;;;;4.90;92.25;100863.69;4965475;28;19992;-44
2022/04/04 08:07:47;;;;;;;;;;;;;;;4.91;92.48;100847.56;4968789;28;19926;-43
2022/04/04 08:10:13;;;;;;;;;;;;;;;4.84;92.68;100849.09;4967486;28;20376;-43
2022/04/04 08:12:38;;;;;;;;;;;;;;;4.83;92.58;100842.09;4969043;28;19972;-45
2022/04/04 08:15:04;;;;;;;;;;;;;;;4.75;93.36;100861.50;4967771;28;19929;-44
2022/04/04 08:17:30;;;;;;;;;;;;;;;4.77;93.71;100842.69;4968386;28;19917;-45
2022/04/04 08:19:56;;;;;;;;;;;;;;;4.74;94.92;100837.63;4960197;28;20353;-51
2022/04/04 08:22:22;;;;;;;;;;;;;;;4.75;95.36;100844.66;4948496;28;19911;-41
2022/04/04 08:24:48;;;;;;;;;;;;;;;4.74;95.10;100848.28;4952700;28;20382;-46
2022/04/04 08:27:13;;;;;;;;;;;;;;;4.77;95.44;100848.88;4967956;28;19937;-46
2022/04/04 08:29:38;;;;;;;;;;;;;;;4.81;95.55;100833.41;4982688;28;19981;-46
2022/04/04 08:32:04;;;;;;;;;;;;;;;4.84;95.75;100822.44;4966981;28;19917;-39
2022/04/04 08:34:30;;;;;;;;;;;;;;;4.90;95.97;100826.34;4967592;28;20012;-35
2022/04/04 08:36:55;;;;;;;;;;;;;;;4.92;96.39;100813.72;4959237;28;20017;-42
2022/04/04 08:39:20;;;;;;;;;;;;;;;4.95;95.90;100814.28;4968209;28;19914;-34
2022/04/04 08:41:45;;;;;;;;;;;;;;;5.01;96.07;100819.03;4967726;28;20347;-43
2022/04/04 08:44:11;;;;;;;;;;;;;;;5.04;96.13;100802.72;4979845;28;20410;-43
2022/04/04 08:46:36;;;;;;;;;;;;;;;5.06;96.47;100803.44;4967459;28;19932;-39
2022/04/04 08:49:05;;;;;;;;;;;;;;;5.09;96.38;100809.47;4966287;28;19952;-44
2022/04/04 08:51:31;;;;;;;;;;;;;;;5.13;97.35;100795.66;4966907;28;19917;-44
2022/04/04 08:53:56;;;;;;;;;;;;;;;5.19;97.55;100788.91;4967772;28;19918;-42
2022/04/04 08:56:23;;;;;;;;;;;;;;;5.21;98.13;100789.59;4965947;28;19966;-44
2022/04/04 08:58:48;;;;;;;;;;;;;;;5.18;98.04;100789.88;5049277;28;19918;-42
2022/04/04 09:01:13;;;;;;;;;;;;;;;5.21;98.20;100777.09;4970415;28;19918;-51
2022/04/04 09:03:39;;;;;;;;;;;;;;;5.27;98.16;100787.19;4971418;28;19924;-45
2022/04/04 09:06:05;;;;;;;;;;;;;;;5.30;98.33;100791.38;4961653;28;19933;-47
2022/04/04 09:08:30;;;;;;;;;;;;;;;5.33;98.29;100780.41;4970139;28;20162;-49
2022/04/04 09:10:57;;;;;;;;;;;;;;;5.37;98.61;100765.78;4969999;28;20008;-47
2022/04/04 09:13:27;;;;;;;;;;;;;;;5.39;98.66;100770.94;5040275;28;20145;-46
2022/04/04 09:15:52;;;;;;;;;;;;;;;5.38;98.79;100764.78;5029590;28;19924;-48
2022/04/04 09:18:18;;;;;;;;;;;;;;;5.42;99.12;100759.97;4985857;28;19915;-45
2022/04/04 09:20:50;;;;;;;;;;;;;;;5.34;99.46;100770.56;4970485;28;19921;-48
2022/04/04 09:23:15;;;;;;;;;;;;;;;5.40;99.38;100751.28;4971725;28;19972;-42
2022/04/04 09:25:41;;;;;;;;;;;;;;;5.40;99.77;100753.97;4969695;28;19918;-46
2022/04/04 09:28:13;;;;;;;;;;;;;;;5.41;100.00;100726.28;4969697;28;19922;-39
2022/04/04 09:30:39;;;;;;;;;;;;;;;5.35;99.46;100750.91;4969644;28;19929;-50
2022/04/04 09:33:04;;;;;;;;;;;;;;;5.39;99.66;100741.59;4968290;28;20300;-48
2022/04/04 09:35:32;;;;;;;;;;;;;;;5.39;99.99;100739.75;4965063;28;19929;-41
2022/04/04 09:37:58;;;;;;;;;;;;;;;5.43;100.00;100745.66;5035452;28;19949;-35
2022/04/04 09:40:27;;;;;;;;;;;;;;;5.44;99.96;100740.16;4968906;28;20365;-39
2022/04/04 09:42:52;;;;;;;;;;;;;;;5.44;100.00;100740.16;4971276;28;20388;-46
2022/04/04 09:45:19;;;;;;;;;;;;;;;5.45;100.00;100739.19;4970424;28;19937;-41
2022/04/04 09:47:48;;;;;;;;;;;;;;;5.46;100.00;100743.50;4962719;28;19921;-46
2022/04/04 09:50:30;;;;;;;;;;;;;;;5.52;100.00;100735.88;4964947;28;20063;-42
2022/04/04 09:52:57;;;;;;;;;;;;;;;5.48;100.00;100736.19;4956992;28;20018;-41
2022/04/04 09:55:33;;;;;;;;;;;;;;;5.49;100.00;100731.69;4950533;28;20483;-43
2022/04/04 09:57:58;;;;;;;;;;;;;;;5.49;100.00;100748.53;4951661;28;20408;-44
2022/04/04 10:00:24;;;;;;;;;;;;;;;5.52;100.00;100733.22;4956088;28;19918;-46
2022/04/04 10:02:49;;;;;;;;;;;;;;;5.57;100.00;100730.94;4969509;28;20016;-45
2022/04/04 10:05:14;;;;;;;;;;;;;;;5.62;100.00;100707.28;4969700;28;19925;-46
2022/04/04 10:07:40;;;;;;;;;;;;;;;5.61;100.00;100733.16;5053185;28;19922;-49
2022/04/04 10:10:05;;;;;;;;;;;;;;;5.64;100.00;100713.31;4970780;28;19966;-43
2022/04/04 10:12:33;;;;;;;;;;;;;;;5.70;100.00;100715.38;4951584;28;19918;-43
2022/04/04 10:15:00;;;;;;;;;;;;;;;5.77;100.00;100697.75;4951730;28;20001;-44
2022/04/04 10:17:25;;;;;;;;;;;;;;;5.78;100.00;100702.09;5033703;28;20227;-47
2022/04/04 10:19:50;;;;;;;;;;;;;;;5.82;100.00;100692.78;5035056;28;20013;-42
2022/04/04 10:22:15;;;;;;;;;;;;;;;5.82;100.00;100695.47;5034815;28;20009;-45
2022/04/04 10:24:41;;;;;;;;;;;;;;;5.87;100.00;100685.16;5034721;28;20365;-40
2022/04/04 10:27:08;;;;;;;;;;;;;;;5.92;100.00;100685.53;5034660;28;19915;-43
2022/04/04 10:29:38;;;;;;;;;;;;;;;5.92;100.00;100701.56;5032816;28;20353;-39
2022/04/04 10:32:05;;;;;;;;;;;;;;;5.93;100.00;100681.88;4950964;28;20009;-36
2022/04/04 10:34:30;;;;;;;;;;;;;;;6.00;100.00;100692.75;5034102;28;19919;-38
2022/04/04 10:36:59;;;;;;;;;;;;;;;6.01;100.00;100688.28;5025148;28;19921;-47
2022/04/04 10:39:54;;;;;;;;;;;;;;;6.05;100.00;100677.09;4970736;28;20357;-35
2022/04/04 10:42:26;;;;;;;;;;;;;;;6.06;100.00;100684.16;4978691;28;19914;-44
2022/04/04 10:44:58;;;;;;;;;;;;;;;6.06;100.00;100681.47;5054230;28;19914;-43
2022/04/04 10:47:26;;;;;;;;;;;;;;;6.11;100.00;100678.34;4971010;28;20318;-39
2022/04/04 10:49:51;;;;;;;;;;;;;;;6.09;100.00;100673.13;5053575;28;19914;-43
2022/04/04 10:52:17;;;;;;;;;;;;;;;6.12;100.00;100672.81;4952481;28;19967;-41
2022/04/04 10:54:43;;;;;;;;;;;;;;;6.12;100.00;100663.97;4951036;28;19914;-42
2022/04/04 10:57:15;;;;;;;;;;;;;;;6.15;100.00;100647.63;4951076;28;20340;-44
2022/04/04 10:59:40;;;;;;;;;;;;;;;6.19;100.00;100662.34;5033965;28;19918;-42
2022/04/04 11:02:06;;;;;;;;;;;;;;;6.26;100.00;100652.69;4951671;29;20017;-44
2022/04/04 11:04:36;;;;;;;;;;;;;;;6.24;100.00;100656.50;5032999;28;19951;-38
2022/04/04 11:10:07;;;;;;;;;;;;;;;;;;;;;
2022/04/04 11:13:13;;;;;;;;;;;;;;;6.35;100.00;100642.91;5025481;28;19914;-44
2022/04/04 11:15:53;;;;;;;;;;;;;;;6.32;100.00;100636.03;4949879;28;19914;-40
2022/04/04 11:18:18;;;;;;;;;;;;;;;6.34;100.00;100626.00;4950238;28;20013;-44
2022/04/04 11:20:59;;;;;;;;;;;;;;;6.38;100.00;100632.72;5045807;28;19952;-46
2022/04/04 11:23:27;;;;;;;;;;;;;;;6.44;100.00;100630.41;4969390;28;19926;-39
2022/04/04 11:25:53;;;;;;;;;;;;;;;6.44;100.00;100625.06;4969547;28;20287;-37
2022/04/04 11:28:24;;;;;;;;;;;;;;;6.48;100.00;100621.06;4938340;29;20017;-36
2022/04/04 11:30:53;;;;;;;;;;;;;;;6.52;100.00;100620.56;4950625;28;19975;-39
2022/04/04 11:33:22;;;;;;;;;;;;;;;6.55;100.00;100611.38;5034872;28;20395;-36
2022/04/04 11:35:48;;;;;;;;;;;;;;;6.54;100.00;100615.91;4962208;28;19918;-35
2022/04/04 11:38:17;;;;;;;;;;;;;;;6.57;100.00;100612.91;5045062;28;19925;-35
2022/04/04 11:43:31;;;;;;;;;;;;;;;6.62;100.00;100620.44;4979179;28;19918;-41
2022/04/04 11:45:56;;;;;;;;;;;;;;;6.69;100.00;100612.59;5052220;28;19932;-48
2022/04/04 11:48:25;;;;;;;;;;;;;;;6.64;100.00;100604.25;4968713;28;19918;-40
2022/04/04 11:50:57;;;;;;;;;;;;;;;6.64;100.00;100605.09;4968271;28;19960;-45
2022/04/04 11:53:25;;;;;;;;;;;;;;;6.69;100.00;100602.75;4968295;28;19915;-39
2022/04/04 11:56:23;;;;;;;;;;;;;;;;;;;;;
2022/04/04 11:58:45;;;;;;;;;;;;;;;6.71;100.00;100590.03;4971836;28;19918;-37
2022/04/04 12:01:11;;;;;;;;;;;;;;;6.82;100.00;100603.13;4966553;28;19980;-35
2022/04/04 12:03:43;;;;;;;;;;;;;;;6.79;100.00;100606.13;5051831;28;19918;-38
2022/04/04 12:06:08;;;;;;;;;;;;;;;6.81;100.00;100596.09;4967985;28;19914;-38
2022/04/04 12:08:35;;;;;;;;;;;;;;;6.82;100.00;100596.94;4968240;28;20387;-34
2022/04/04 12:11:00;;;;;;;;;;;;;;;6.84;100.00;100600.28;4966895;28;20377;-38
2022/04/04 12:13:26;;;;;;;;;;;;;;;6.88;100.00;100593.63;4949542;28;19925;-45
2022/04/04 12:15:52;;;;;;;;;;;;;;;6.87;100.00;100588.41;4960446;28;20032;-38
2022/04/04 12:18:20;;;;;;;;;;;;;;;6.89;100.00;100587.25;4968861;28;19969;-47
2022/04/04 12:20:46;;;;;;;;;;;;;;;6.91;100.00;100579.06;4958577;28;19918;-41
2022/04/04 12:25:59;;;;;;;;;;;;;;;6.88;100.00;100564.19;4965796;28;19944;-40
2022/04/04 12:28:26;;;;;;;;;;;;;;;6.92;100.00;100576.22;4969311;28;19918;-40
2022/04/04 12:30:51;;;;;;;;;;;;;;;6.94;100.00;100576.91;4971743;28;20250;-36
2022/04/04 12:33:16;;;;;;;;;;;;;;;6.99;100.00;100565.72;4971439;28;19925;-35
2022/04/04 12:35:43;;;;;;;;;;;;;;;6.98;100.00;100580.09;4971698;28;19925;-34
2022/04/04 12:38:09;;;;;;;;;;;;;;;6.99;100.00;100561.19;5038331;28;19914;-36
2022/04/04 12:40:34;;;;;;;;;;;;;;;7.00;100.00;100557.53;4952945;28;20369;-46
2022/04/04 12:43:09;;;;;;;;;;;;;;;7.04;100.00;100555.34;4954894;28;20284;-33
2022/04/04 12:45:45;;;;;;;;;;;;;;;7.06;100.00;100561.38;4972050;28;19918;-40
2022/04/04 12:48:11;;;;;;;;;;;;;;;7.06;100.00;100545.31;4972186;28;19945;-44
2022/04/04 12:50:43;;;;;;;;;;;;;;;7.04;100.00;100539.28;4971872;28;20007;-34
2022/04/04 12:53:09;;;;;;;;;;;;;;;7.07;100.00;100555.00;4966915;28;19998;-39